createdAt,value
2022-10-05T00:03:59.203Z,12.45
2022-10-05T00:08:13.174Z,12.49
2022-10-05T00:12:17.336Z,12.37
2022-10-05T00:16:22.210Z,12.51
2022-10-05T00:20:27.916Z,12.47
2022-10-05T00:24:31.176Z,12.43
2022-10-05T00:28:34.153Z,12.36
2022-10-05T00:32:37.058Z,12.34
2022-10-05T00:36:41.665Z,12.25
2022-10-05T00:41:03.391Z,12.38
2022-10-05T00:45:10.606Z,12.40
2022-10-05T00:49:23.617Z,12.24
2022-10-05T00:53:39.360Z,12.41
2022-10-05T00:57:58.491Z,12.31
2022-10-05T01:02:06.678Z,12.37
2022-10-05T01:06:17.761Z,12.30
2022-10-05T01:10:28.859Z,12.35
2022-10-05T01:14:41.081Z,12.38
2022-10-05T01:18:53.576Z,12.44
2022-10-05T01:23:25.149Z,12.39
2022-10-05T01:27:46.593Z,12.38
2022-10-05T01:31:57.332Z,12.47
2022-10-05T01:36:10.235Z,12.44
2022-10-05T01:40:20.431Z,12.52
2022-10-05T01:44:30.978Z,12.47
2022-10-05T01:48:45.107Z,12.48
2022-10-05T01:52:57.603Z,12.55
2022-10-05T01:57:07.677Z,12.66
2022-10-05T02:01:23.268Z,12.67
2022-10-05T02:05:33.488Z,12.76
2022-10-05T02:09:40.842Z,12.67
2022-10-05T02:13:47.348Z,12.76
2022-10-05T02:17:55.831Z,12.73
2022-10-05T02:22:06.854Z,12.74
2022-10-05T02:26:12.488Z,12.76
2022-10-05T02:30:18.160Z,12.79
2022-10-05T02:34:24.704Z,12.89
2022-10-05T02:38:37.541Z,12.91
2022-10-05T02:42:50.410Z,12.95
2022-10-05T02:47:00.414Z,12.99
2022-10-05T02:51:15.655Z,13.01
2022-10-05T02:55:25.851Z,12.99
2022-10-05T02:59:35.651Z,12.97
2022-10-05T03:03:42.988Z,12.98
2022-10-05T03:07:53.829Z,13.04
2022-10-05T03:12:06.865Z,13.09
2022-10-05T03:16:34.231Z,13.12
2022-10-05T03:20:45.229Z,13.11
2022-10-05T03:25:19.266Z,13.15
2022-10-05T03:29:31.069Z,13.09
2022-10-05T03:33:43.829Z,13.09
2022-10-05T03:37:52.406Z,13.08
2022-10-05T03:42:04.359Z,13.13
2022-10-05T03:46:14.881Z,13.03
2022-10-05T03:50:32.251Z,12.99
2022-10-05T03:54:39.781Z,13.01
2022-10-05T03:58:51.838Z,13.02
2022-10-05T04:03:01.795Z,13.12
2022-10-05T04:07:07.530Z,13.04
2022-10-05T04:11:15.527Z,12.96
2022-10-05T04:15:28.393Z,12.88
2022-10-05T04:19:38.091Z,12.73
2022-10-05T04:23:48.010Z,12.57
2022-10-05T04:27:56.409Z,12.43
2022-10-05T04:32:24.071Z,12.28
2022-10-05T04:36:32.986Z,12.31
2022-10-05T04:40:51.053Z,12.31
2022-10-05T04:45:05.220Z,12.33
2022-10-05T04:49:31.851Z,12.35
2022-10-05T04:53:40.629Z,12.48
2022-10-05T04:57:51.659Z,12.59
2022-10-05T05:02:06.877Z,12.73
2022-10-05T05:06:21.681Z,12.73
2022-10-05T05:10:45.023Z,12.81
2022-10-05T05:15:17.718Z,12.91
2022-10-05T05:19:34.862Z,13.00
2022-10-05T05:23:45.491Z,13.12
2022-10-05T05:27:53.530Z,13.26
2022-10-05T05:32:08.513Z,13.35
2022-10-05T05:36:28.930Z,13.55
2022-10-05T05:40:35.753Z,13.67
2022-10-05T05:44:46.613Z,13.81
2022-10-05T05:48:50.802Z,13.87
2022-10-05T05:52:56.732Z,13.90
2022-10-05T05:57:11.999Z,13.95
2022-10-05T06:01:33.336Z,13.99
2022-10-05T06:05:43.357Z,14.05
2022-10-05T06:09:50.267Z,14.11
2022-10-05T06:13:55.653Z,14.17
2022-10-05T06:18:04.183Z,14.27
2022-10-05T06:22:14.739Z,14.31
2022-10-05T06:26:41.076Z,14.40
2022-10-05T06:30:59.403Z,14.41
2022-10-05T06:35:13.292Z,14.45
2022-10-05T06:39:34.466Z,14.51
2022-10-05T06:43:58.277Z,14.55
2022-10-05T06:48:11.195Z,14.59
2022-10-05T06:52:20.993Z,14.65
2022-10-05T06:56:33.879Z,14.76
2022-10-05T07:00:42.079Z,14.84
2022-10-05T07:05:02.557Z,14.91
2022-10-05T07:09:16.818Z,14.93
2022-10-05T07:13:46.258Z,15.02
2022-10-05T07:18:01.316Z,15.09
2022-10-05T07:22:35.473Z,15.24
2022-10-05T07:26:47.278Z,15.35
2022-10-05T07:30:57.647Z,15.46
2022-10-05T07:35:06.327Z,15.47
2022-10-05T07:39:18.106Z,15.50
2022-10-05T07:43:51.399Z,15.56
2022-10-05T07:47:58.648Z,15.61
2022-10-05T07:52:04.231Z,15.67
2022-10-05T07:56:15.851Z,15.76
2022-10-05T08:00:21.608Z,15.84
2022-10-05T08:04:29.261Z,15.91
2022-10-05T08:08:42.080Z,15.98
2022-10-05T08:13:01.596Z,16.02
2022-10-05T08:17:13.035Z,16.17
2022-10-05T08:21:21.007Z,16.11
2022-10-05T08:25:27.778Z,16.17
2022-10-05T08:29:35.988Z,16.18
2022-10-05T08:33:47.836Z,16.24
2022-10-05T08:37:52.066Z,16.35
2022-10-05T08:42:17.764Z,16.43
2022-10-05T08:46:49.301Z,16.46
2022-10-05T08:51:17.362Z,16.60
2022-10-05T08:55:42.594Z,16.71
2022-10-05T09:00:06.518Z,16.81
2022-10-05T09:04:30.131Z,16.96
2022-10-05T09:09:09.335Z,17.13
2022-10-05T09:13:40.657Z,17.13
2022-10-05T09:18:10.539Z,17.12
2022-10-05T09:22:17.715Z,17.10
2022-10-05T09:26:43.977Z,17.30
2022-10-05T09:30:59.679Z,17.33
2022-10-05T09:35:17.157Z,17.44
2022-10-05T09:39:42.410Z,17.48
2022-10-05T09:44:07.320Z,17.44
2022-10-05T09:48:34.916Z,17.48
2022-10-05T09:52:57.408Z,17.62
2022-10-05T09:57:18.481Z,17.54
2022-10-05T10:01:37.764Z,17.61
2022-10-05T10:06:29.937Z,17.64
2022-10-05T10:10:57.949Z,17.66
2022-10-05T10:15:43.508Z,17.94
2022-10-05T10:20:17.758Z,17.79
2022-10-05T10:24:38.704Z,17.87
2022-10-05T10:29:06.126Z,18.13
2022-10-05T10:33:24.115Z,18.40
2022-10-05T10:37:39.849Z,18.71
2022-10-05T10:42:06.891Z,18.49
2022-10-05T10:46:21.718Z,18.32
2022-10-05T10:50:41.179Z,18.63
2022-10-05T10:55:21.285Z,18.57
2022-10-05T11:00:07.241Z,19.07
2022-10-05T11:04:43.703Z,19.31
2022-10-05T11:09:18.894Z,19.60
2022-10-05T11:13:38.150Z,19.78
2022-10-05T11:18:01.036Z,20.17
2022-10-05T11:22:22.464Z,20.95
2022-10-05T11:26:43.266Z,21.63
2022-10-05T11:31:19.075Z,20.66
2022-10-05T11:35:59.744Z,20.62
2022-10-05T11:40:36.429Z,21.14
2022-10-05T11:45:17.083Z,20.79
2022-10-05T11:49:35.260Z,21.92
2022-10-05T11:53:42.493Z,22.23
2022-10-05T11:57:51.645Z,21.89
2022-10-05T12:02:02.738Z,21.95
2022-10-05T12:06:31.955Z,21.75
2022-10-05T12:10:43.946Z,22.27
2022-10-05T12:14:58.345Z,22.65
2022-10-05T12:19:08.033Z,22.28
2022-10-05T12:23:18.678Z,22.25
2022-10-05T12:27:27.401Z,22.57
2022-10-05T12:31:41.741Z,22.48
2022-10-05T12:35:52.324Z,22.88
2022-10-05T12:39:59.163Z,23.17
2022-10-05T12:44:12.489Z,23.39
2022-10-05T12:48:32.399Z,24.04
2022-10-05T12:53:03.456Z,23.20
2022-10-05T12:57:14.503Z,23.64
2022-10-05T13:01:28.431Z,23.57
2022-10-05T13:05:38.525Z,23.40
2022-10-05T13:09:54.362Z,23.69
2022-10-05T13:14:09.470Z,23.50
2022-10-05T13:18:21.146Z,23.37
2022-10-05T13:22:32.887Z,24.55
2022-10-05T13:26:41.055Z,24.08
2022-10-05T13:30:54.520Z,24.53
2022-10-05T13:35:13.279Z,23.59
2022-10-05T13:39:31.724Z,23.89
2022-10-05T13:43:44.174Z,23.90
2022-10-05T13:48:01.320Z,25.55
2022-10-05T13:52:21.169Z,24.93
2022-10-05T13:56:30.452Z,25.15
2022-10-05T14:00:41.401Z,24.49
2022-10-05T14:04:46.975Z,24.21
2022-10-05T14:08:53.727Z,24.15
2022-10-05T14:12:56.797Z,23.93
2022-10-05T14:21:22.238Z,23.83
2022-10-05T14:25:25.746Z,24.30
2022-10-05T14:29:36.527Z,24.29
2022-10-05T14:33:41.112Z,23.91
2022-10-05T14:37:48.490Z,24.28
2022-10-05T14:41:51.929Z,24.08
2022-10-05T14:45:57.421Z,23.83
2022-10-05T14:50:18.256Z,23.54
2022-10-05T14:54:34.204Z,22.96
2022-10-05T14:59:00.023Z,24.23
2022-10-05T15:03:16.385Z,24.15
2022-10-05T15:07:25.911Z,22.86
2022-10-05T15:11:38.995Z,23.32
2022-10-05T15:15:48.813Z,22.12
2022-10-05T15:20:01.783Z,21.61
2022-10-05T15:28:16.824Z,21.27
2022-10-05T15:32:35.630Z,21.23
2022-10-05T15:36:44.303Z,21.03
2022-10-05T15:40:59.125Z,21.05
2022-10-05T15:45:15.486Z,20.94
2022-10-05T15:49:27.347Z,20.75
2022-10-05T15:53:38.939Z,20.68
2022-10-05T15:57:50.574Z,20.60
2022-10-05T16:02:00.947Z,20.49
2022-10-05T16:06:28.272Z,20.84
2022-10-05T16:10:35.044Z,21.05
2022-10-05T16:14:56.593Z,20.58
2022-10-05T16:19:09.539Z,20.33
2022-10-05T16:23:23.779Z,20.16
2022-10-05T16:27:37.442Z,20.19
2022-10-05T16:31:55.333Z,20.03
2022-10-05T16:36:06.383Z,19.19
2022-10-05T16:40:19.111Z,18.79
2022-10-05T16:44:34.795Z,18.48
2022-10-05T16:48:47.722Z,18.18
2022-10-05T16:52:58.044Z,18.02
2022-10-05T16:57:10.184Z,18.01
2022-10-05T17:01:24.554Z,18.03
2022-10-05T17:05:44.323Z,18.08
2022-10-05T17:10:21.999Z,18.10
2022-10-05T17:14:38.827Z,18.20
2022-10-05T17:19:21.883Z,18.21
2022-10-05T17:23:33.303Z,18.32
2022-10-05T17:27:52.365Z,18.39
2022-10-05T17:32:09.892Z,18.46
2022-10-05T17:36:19.153Z,18.50
2022-10-05T17:40:35.978Z,18.56
2022-10-05T17:44:38.830Z,18.61
2022-10-05T17:49:08.861Z,18.63
2022-10-05T17:53:39.981Z,18.55
2022-10-05T17:57:44.207Z,18.52
2022-10-05T18:02:21.633Z,18.48
2022-10-05T18:06:44.884Z,18.60
2022-10-05T18:11:13.465Z,18.57
2022-10-05T18:15:45.003Z,18.61
2022-10-05T18:20:14.880Z,18.54
2022-10-05T18:24:53.290Z,18.62
2022-10-05T18:29:14.174Z,18.68
2022-10-05T18:33:35.929Z,18.55
2022-10-05T18:37:52.793Z,18.58
2022-10-05T18:42:08.034Z,18.53
2022-10-05T18:46:30.010Z,18.60
2022-10-05T18:50:41.500Z,18.68
2022-10-05T18:54:55.011Z,18.61
2022-10-05T18:59:14.357Z,18.56
2022-10-05T19:03:25.084Z,18.61
2022-10-05T19:07:40.835Z,18.54
2022-10-05T19:11:55.455Z,18.62
2022-10-05T19:16:11.894Z,18.71
2022-10-05T19:20:22.424Z,18.71
2022-10-05T19:24:49.619Z,18.75
2022-10-05T19:29:04.632Z,18.70
2022-10-05T19:33:21.083Z,18.69
2022-10-05T19:37:33.393Z,18.69
2022-10-05T19:41:54.053Z,18.66
2022-10-05T19:46:06.931Z,18.72
2022-10-05T19:50:28.877Z,18.75
2022-10-05T19:54:33.650Z,18.75
2022-10-05T19:58:43.265Z,18.74
2022-10-05T20:02:46.308Z,18.72
2022-10-05T20:06:49.267Z,18.65
2022-10-05T20:11:07.229Z,18.71
2022-10-05T20:15:36.409Z,18.68
2022-10-05T20:19:57.752Z,18.77
2022-10-05T20:24:11.482Z,18.74
2022-10-05T20:28:31.664Z,18.78
2022-10-05T20:32:36.105Z,18.81
2022-10-05T20:36:43.650Z,18.78
2022-10-05T20:40:46.811Z,18.77
2022-10-05T20:44:54.310Z,18.77
2022-10-05T20:49:00.897Z,18.75
2022-10-05T20:53:07.270Z,18.75
2022-10-05T20:57:13.526Z,18.72
2022-10-05T21:01:18.438Z,18.70
2022-10-05T21:05:22.830Z,18.73
2022-10-05T21:09:26.427Z,18.45
2022-10-05T21:13:29.174Z,18.32
2022-10-05T21:17:32.067Z,18.37
2022-10-05T21:21:36.762Z,17.84
2022-10-05T21:25:39.505Z,16.19
2022-10-05T21:29:44.263Z,15.62
2022-10-05T21:33:47.139Z,15.44
2022-10-05T21:37:51.447Z,15.30
2022-10-05T21:41:54.179Z,15.26
2022-10-05T21:45:57.426Z,15.26
2022-10-05T21:50:00.945Z,15.27
2022-10-05T21:54:09.819Z,15.39
2022-10-05T21:58:15.044Z,15.45
2022-10-05T22:02:17.838Z,15.51
2022-10-05T22:06:20.609Z,15.61
2022-10-05T22:10:25.187Z,15.71
2022-10-05T22:14:28.398Z,15.70
2022-10-05T22:18:31.659Z,15.64
2022-10-05T22:22:35.050Z,15.71
2022-10-05T22:26:40.288Z,15.71
2022-10-05T22:30:46.130Z,15.76
2022-10-05T22:34:48.863Z,15.78
2022-10-05T22:38:53.852Z,15.78
2022-10-05T22:42:58.450Z,15.85
2022-10-05T22:47:01.739Z,15.89
2022-10-05T22:51:04.621Z,15.68
2022-10-05T22:55:08.439Z,15.43
2022-10-05T22:59:12.742Z,15.20
2022-10-05T23:03:16.464Z,14.24
2022-10-05T23:07:19.319Z,13.78
2022-10-05T23:11:25.892Z,13.51
2022-10-05T23:15:30.406Z,13.35
2022-10-05T23:19:33.152Z,13.36
2022-10-05T23:23:37.476Z,13.38
2022-10-05T23:27:41.933Z,13.46
2022-10-05T23:31:46.132Z,13.47
2022-10-05T23:35:48.953Z,13.51
2022-10-05T23:39:51.783Z,13.48
2022-10-05T23:43:56.103Z,13.50
2022-10-05T23:48:00.305Z,13.55
2022-10-05T23:52:03.043Z,13.56
2022-10-05T23:56:06.454Z,13.47
